createdAt,value
2022-09-12T00:00:49.853Z,2.10
2022-09-12T00:03:18.155Z,1.93
2022-09-12T00:05:47.752Z,1.63
2022-09-12T00:08:15.855Z,2.40
2022-09-12T00:10:45.643Z,2.07
2022-09-12T00:13:14.565Z,1.80
2022-09-12T00:15:43.899Z,2.20
2022-09-12T00:18:16.727Z,2.03
2022-09-12T00:20:45.437Z,2.20
2022-09-12T00:23:13.729Z,1.90
2022-09-12T00:25:44.807Z,1.97
2022-09-12T00:28:15.362Z,1.83
2022-09-12T00:30:43.207Z,1.67
2022-09-12T00:33:11.581Z,1.77
2022-09-12T00:35:43.309Z,1.83
2022-09-12T00:38:11.010Z,1.90
2022-09-12T00:40:38.781Z,1.67
2022-09-12T00:43:06.581Z,1.90
2022-09-12T00:45:35.864Z,1.73
2022-09-12T00:48:05.190Z,1.53
2022-09-12T00:50:34.139Z,1.60
2022-09-12T00:53:05.578Z,1.77
2022-09-12T00:55:37.119Z,1.80
2022-09-12T00:58:10.018Z,1.67
2022-09-12T01:00:41.576Z,1.50
2022-09-12T01:03:14.523Z,1.83
2022-09-12T01:05:46.403Z,2.03
2022-09-12T01:08:14.394Z,1.80
2022-09-12T01:10:43.480Z,2.10
2022-09-12T01:13:12.067Z,1.73
2022-09-12T01:15:41.680Z,2.00
2022-09-12T01:18:19.007Z,2.13
2022-09-12T01:20:54.725Z,1.83
2022-09-12T01:24:01.885Z,2.13
2022-09-12T01:26:55.416Z,2.03
2022-09-12T01:29:40.972Z,1.80
2022-09-12T01:32:14.449Z,1.80
2022-09-12T01:34:47.767Z,1.67
2022-09-12T01:37:23.436Z,1.70
2022-09-12T01:39:59.451Z,1.70
2022-09-12T01:42:35.137Z,1.60
2022-09-12T01:45:10.585Z,1.60
2022-09-12T01:47:44.742Z,1.50
2022-09-12T01:50:18.688Z,1.53
2022-09-12T01:52:52.045Z,1.37
2022-09-12T01:55:23.749Z,1.70
2022-09-12T01:57:55.981Z,1.60
2022-09-12T02:00:23.954Z,1.60
2022-09-12T02:02:58.338Z,1.50
2022-09-12T02:05:32.077Z,1.30
2022-09-12T02:08:06.851Z,1.53
2022-09-12T02:10:39.539Z,1.40
2022-09-12T02:13:14.569Z,1.80
2022-09-12T02:15:47.980Z,2.00
2022-09-12T02:18:19.255Z,1.67
2022-09-12T02:20:49.536Z,1.60
2022-09-12T02:23:24.687Z,1.80
2022-09-12T02:25:55.657Z,1.50
2022-09-12T02:28:27.733Z,2.00
2022-09-12T02:31:02.304Z,1.67
2022-09-12T02:33:39.207Z,1.70
2022-09-12T02:36:17.860Z,2.10
2022-09-12T02:38:47.935Z,1.87
2022-09-12T02:41:19.025Z,1.50
2022-09-12T02:43:47.402Z,1.63
2022-09-12T02:46:19.017Z,1.70
2022-09-12T02:48:47.988Z,1.83
2022-09-12T02:51:18.287Z,1.90
2022-09-12T02:53:49.250Z,1.47
2022-09-12T02:56:21.446Z,2.03
2022-09-12T02:58:49.747Z,1.40
2022-09-12T03:01:31.038Z,1.50
2022-09-12T03:04:26.147Z,1.70
2022-09-12T03:07:05.110Z,1.60
2022-09-12T03:09:40.696Z,1.37
2022-09-12T03:12:22.045Z,1.10
2022-09-12T03:15:10.851Z,1.23
2022-09-12T03:17:52.613Z,1.30
2022-09-12T03:20:32.070Z,1.20
2022-09-12T03:23:04.804Z,1.20
2022-09-12T03:25:37.315Z,1.40
2022-09-12T03:28:09.153Z,1.30
2022-09-12T03:30:39.950Z,1.40
2022-09-12T03:33:07.811Z,1.33
2022-09-12T03:35:36.748Z,1.30
2022-09-12T03:38:05.052Z,1.47
2022-09-12T03:40:32.585Z,1.20
2022-09-12T03:43:00.143Z,1.33
2022-09-12T03:45:27.866Z,1.37
2022-09-12T03:47:55.495Z,1.40
2022-09-12T03:50:23.174Z,1.40
2022-09-12T03:52:52.092Z,1.40
2022-09-12T03:55:19.690Z,1.27
2022-09-12T03:57:47.324Z,1.33
2022-09-12T04:00:19.560Z,1.50
2022-09-12T04:02:47.554Z,1.30
2022-09-12T04:05:15.320Z,1.03
2022-09-12T04:07:42.981Z,1.57
2022-09-12T04:10:11.979Z,1.27
2022-09-12T04:12:39.664Z,1.50
2022-09-12T04:15:08.454Z,1.50
2022-09-12T04:17:36.204Z,1.30
2022-09-12T04:20:04.129Z,1.30
2022-09-12T04:22:32.526Z,1.20
2022-09-12T04:25:00.110Z,1.40
2022-09-12T04:27:29.428Z,1.47
2022-09-12T04:29:57.380Z,1.40
2022-09-12T04:32:25.039Z,1.47
2022-09-12T04:34:53.339Z,1.83
2022-09-12T04:37:21.225Z,1.60
2022-09-12T04:39:49.742Z,1.30
2022-09-12T04:42:17.706Z,1.10
2022-09-12T04:44:46.656Z,1.27
2022-09-12T04:47:14.233Z,1.40
2022-09-12T04:49:41.801Z,1.00
2022-09-12T04:52:09.485Z,1.40
2022-09-12T04:54:37.879Z,1.23
2022-09-12T04:57:05.620Z,1.23
2022-09-12T04:59:33.241Z,1.20
2022-09-12T05:02:02.659Z,1.20
2022-09-12T05:04:31.570Z,1.27
2022-09-12T05:06:59.981Z,1.17
2022-09-12T05:09:27.762Z,1.40
2022-09-12T05:12:04.707Z,1.13
2022-09-12T05:14:33.568Z,1.50
2022-09-12T05:17:03.289Z,1.17
2022-09-12T05:19:31.957Z,1.20
2022-09-12T05:22:00.157Z,1.50
2022-09-12T05:24:28.119Z,1.40
2022-09-12T05:26:55.741Z,1.20
2022-09-12T05:29:25.103Z,1.43
2022-09-12T05:31:53.173Z,1.60
2022-09-12T05:34:22.327Z,1.50
2022-09-12T05:36:49.974Z,1.93
2022-09-12T05:39:18.526Z,1.53
2022-09-12T05:41:46.172Z,1.70
2022-09-12T05:44:15.119Z,1.70
2022-09-12T05:46:45.252Z,1.73
2022-09-12T05:49:14.745Z,1.60
2022-09-12T05:51:45.449Z,1.77
2022-09-12T05:54:15.170Z,1.70
2022-09-12T05:56:44.695Z,1.40
2022-09-12T05:59:14.091Z,2.10
2022-09-12T06:01:42.623Z,2.40
2022-09-12T06:04:10.537Z,2.13
2022-09-12T06:06:42.645Z,2.37
2022-09-12T06:09:11.985Z,1.73
2022-09-12T06:11:41.766Z,2.20
2022-09-12T06:14:16.846Z,3.17
2022-09-12T06:16:44.743Z,2.30
2022-09-12T06:19:16.298Z,2.20
2022-09-12T06:21:44.544Z,1.80
2022-09-12T06:24:14.061Z,1.77
2022-09-12T06:26:41.687Z,1.97
2022-09-12T06:29:11.495Z,2.10
2022-09-12T06:31:43.638Z,1.57
2022-09-12T06:34:13.298Z,1.77
2022-09-12T06:36:43.088Z,1.90
2022-09-12T06:39:14.621Z,1.87
2022-09-12T06:41:44.195Z,1.33
2022-09-12T06:44:14.331Z,1.70
2022-09-12T06:46:41.953Z,1.80
2022-09-12T06:49:09.964Z,1.33
2022-09-12T06:51:37.690Z,1.80
2022-09-12T06:54:06.322Z,1.60
2022-09-12T06:56:35.941Z,1.80
2022-09-12T06:59:03.557Z,2.20
2022-09-12T07:01:32.768Z,1.90
2022-09-12T07:04:02.133Z,2.10
2022-09-12T07:06:32.485Z,2.13
2022-09-12T07:09:00.901Z,1.70
2022-09-12T07:11:31.685Z,1.70
2022-09-12T07:14:02.110Z,1.60
2022-09-12T07:16:30.347Z,1.90
2022-09-12T07:19:01.362Z,1.70
2022-09-12T07:21:29.877Z,1.90
2022-09-12T07:23:58.137Z,1.60
2022-09-12T07:26:29.990Z,1.63
2022-09-12T07:29:18.606Z,1.90
2022-09-12T07:31:49.107Z,1.57
2022-09-12T07:34:17.603Z,1.80
2022-09-12T07:36:45.228Z,2.00
2022-09-12T07:39:16.230Z,1.90
2022-09-12T07:41:43.836Z,1.80
2022-09-12T07:44:11.461Z,1.93
2022-09-12T07:46:40.702Z,1.90
2022-09-12T07:49:10.727Z,2.10
2022-09-12T07:51:38.415Z,2.47
2022-09-12T07:54:09.192Z,2.27
2022-09-12T07:56:39.524Z,2.23
2022-09-12T07:59:09.581Z,1.80
2022-09-12T08:01:37.306Z,2.20
2022-09-12T08:04:06.050Z,1.90
2022-09-12T08:06:36.907Z,2.00
2022-09-12T08:09:06.036Z,1.90
2022-09-12T08:11:33.782Z,2.10
2022-09-12T08:14:03.002Z,2.07
2022-09-12T08:16:32.172Z,2.03
2022-09-12T08:19:01.968Z,1.90
2022-09-12T08:21:31.677Z,1.90
2022-09-12T08:24:02.024Z,1.80
2022-09-12T08:26:30.150Z,1.70
2022-09-12T08:28:58.212Z,1.50
2022-09-12T08:31:27.752Z,1.63
2022-09-12T08:33:56.991Z,1.90
2022-09-12T08:36:26.441Z,1.85
2022-09-12T08:38:59.621Z,1.70
2022-09-12T08:41:31.800Z,1.50
2022-09-12T08:44:34.931Z,1.95
2022-09-12T08:47:21.126Z,1.77
2022-09-12T08:50:03.931Z,2.00
2022-09-12T08:52:38.406Z,1.65
2022-09-12T08:55:12.901Z,2.20
2022-09-12T08:57:41.948Z,2.50
2022-09-12T09:00:15.103Z,2.40
2022-09-12T09:02:59.026Z,2.20
2022-09-12T09:05:38.731Z,2.30
2022-09-12T09:08:41.840Z,2.22
2022-09-12T09:11:24.345Z,2.20
2022-09-12T09:14:22.708Z,1.67
2022-09-12T09:16:53.496Z,1.42
2022-09-12T09:19:26.327Z,1.52
2022-09-12T09:22:00.126Z,1.63
2022-09-12T09:24:34.368Z,1.70
2022-09-12T09:27:23.474Z,1.98
2022-09-12T09:29:57.002Z,1.90
2022-09-12T09:32:28.886Z,1.98
2022-09-12T09:34:56.691Z,1.95
2022-09-12T09:37:33.320Z,2.10
2022-09-12T09:40:08.274Z,1.70
2022-09-12T09:42:43.695Z,2.17
2022-09-12T09:45:17.955Z,2.17
2022-09-12T09:47:46.914Z,2.05
2022-09-12T09:50:17.563Z,2.42
2022-09-12T09:52:45.384Z,1.90
2022-09-12T09:55:18.795Z,1.80
2022-09-12T09:57:47.681Z,1.70
2022-09-12T10:00:26.999Z,1.70
2022-09-12T10:03:12.602Z,1.92
2022-09-12T10:05:48.005Z,2.00
2022-09-12T10:08:22.272Z,2.38
2022-09-12T10:11:02.835Z,2.10
2022-09-12T10:13:37.586Z,1.77
2022-09-12T10:16:08.628Z,2.10
2022-09-12T10:18:39.973Z,1.70
2022-09-12T10:21:20.382Z,1.80
2022-09-12T10:23:52.456Z,1.67
2022-09-12T10:26:21.639Z,1.75
2022-09-12T10:28:53.462Z,1.77
2022-09-12T10:31:29.003Z,2.00
2022-09-12T10:33:59.610Z,2.08
2022-09-12T10:36:36.711Z,1.83
2022-09-12T10:39:05.531Z,2.20
2022-09-12T10:41:38.916Z,2.28
2022-09-12T10:44:09.799Z,2.00
2022-09-12T10:46:39.194Z,1.85
2022-09-12T10:49:24.177Z,2.10
2022-09-12T10:51:53.952Z,2.05
2022-09-12T10:54:24.629Z,2.10
2022-09-12T10:57:07.608Z,1.90
2022-09-12T10:59:52.658Z,1.60
2022-09-12T11:02:29.340Z,1.88
2022-09-12T11:05:08.980Z,1.80
2022-09-12T11:07:42.937Z,2.28
2022-09-12T11:10:44.460Z,2.20
2022-09-12T11:13:24.277Z,1.83
2022-09-12T11:16:10.555Z,1.70
2022-09-12T11:19:06.384Z,2.03
2022-09-12T11:21:48.850Z,1.60
2022-09-12T11:24:35.145Z,2.33
2022-09-12T11:27:15.009Z,2.30
2022-09-12T11:29:49.959Z,1.83
2022-09-12T11:32:59.956Z,1.90
2022-09-12T11:35:30.335Z,2.00
2022-09-12T11:38:12.695Z,1.65
2022-09-12T11:40:45.705Z,1.90
2022-09-12T11:43:24.862Z,1.98
2022-09-12T11:45:53.541Z,1.65
2022-09-12T11:48:36.017Z,1.90
2022-09-12T11:51:09.009Z,1.67
2022-09-12T11:53:42.570Z,1.58
2022-09-12T11:56:16.947Z,1.70
2022-09-12T11:58:47.299Z,1.70
2022-09-12T12:01:19.063Z,1.83
2022-09-12T12:03:48.894Z,1.90
2022-09-12T12:06:20.211Z,1.90
2022-09-12T12:08:50.447Z,2.10
2022-09-12T12:11:30.098Z,2.00
2022-09-12T12:14:01.359Z,1.80
2022-09-12T12:16:30.846Z,1.80
2022-09-12T12:19:00.195Z,1.70
2022-09-12T12:21:37.694Z,1.98
2022-09-12T12:24:23.006Z,1.80
2022-09-12T12:27:00.136Z,1.85
2022-09-12T12:29:44.121Z,1.60
2022-09-12T12:32:33.047Z,2.10
2022-09-12T12:35:37.692Z,1.73
2022-09-12T12:38:27.180Z,1.60
2022-09-12T12:40:54.878Z,1.60
2022-09-12T12:43:32.956Z,1.38
2022-09-12T12:46:12.427Z,2.03
2022-09-12T12:48:51.723Z,1.50
2022-09-12T12:51:38.823Z,1.50
2022-09-12T12:54:29.387Z,1.60
2022-09-12T12:57:18.491Z,2.08
2022-09-12T12:59:49.973Z,1.73
2022-09-12T13:02:26.753Z,1.70
2022-09-12T13:04:55.582Z,1.42
2022-09-12T13:07:28.878Z,1.70
2022-09-12T13:09:59.417Z,2.17
2022-09-12T13:12:30.614Z,1.58
2022-09-12T13:14:59.441Z,1.50
2022-09-12T13:17:31.508Z,1.70
2022-09-12T13:20:28.754Z,1.70
2022-09-12T13:22:57.413Z,1.70
2022-09-12T13:25:30.176Z,1.70
2022-09-12T13:28:07.187Z,2.05
2022-09-12T13:30:37.342Z,1.40
2022-09-12T13:33:14.310Z,1.90
2022-09-12T13:35:54.082Z,1.63
2022-09-12T13:38:32.182Z,1.77
2022-09-12T13:41:19.871Z,2.28
2022-09-12T13:43:49.475Z,1.60
2022-09-12T13:46:23.682Z,1.70
2022-09-12T13:48:51.330Z,1.58
2022-09-12T13:51:25.169Z,2.00
2022-09-12T13:53:56.226Z,1.60
2022-09-12T13:56:25.268Z,1.80
2022-09-12T13:58:56.341Z,1.95
2022-09-12T14:01:25.516Z,1.88
2022-09-12T14:04:11.990Z,2.00
2022-09-12T14:06:49.999Z,1.40
2022-09-12T14:09:25.442Z,1.42
2022-09-12T14:11:55.806Z,1.35
2022-09-12T14:14:29.439Z,1.30
2022-09-12T14:16:57.049Z,1.65
2022-09-12T14:19:27.318Z,1.30
2022-09-12T14:21:55.963Z,1.60
2022-09-12T14:24:24.364Z,1.38
2022-09-12T14:26:57.672Z,1.95
2022-09-12T14:29:26.203Z,1.50
2022-09-12T14:32:05.731Z,1.70
2022-09-12T14:34:33.318Z,1.52
2022-09-12T14:37:01.083Z,1.65
2022-09-12T14:39:33.952Z,1.48
2022-09-12T14:42:07.199Z,1.75
2022-09-12T14:44:37.243Z,1.60
2022-09-12T14:47:16.089Z,2.15
2022-09-12T14:49:44.665Z,1.73
2022-09-12T14:52:26.541Z,1.35
2022-09-12T14:54:58.837Z,1.40
2022-09-12T14:57:38.801Z,1.42
2022-09-12T15:00:17.801Z,1.67
2022-09-12T15:02:45.660Z,1.60
2022-09-12T15:05:20.185Z,1.60
2022-09-12T15:07:54.821Z,1.80
2022-09-12T15:10:25.370Z,1.88
2022-09-12T15:13:14.158Z,1.80
2022-09-12T15:15:43.361Z,1.70
2022-09-12T15:18:11.343Z,1.70
2022-09-12T15:20:40.797Z,1.75
2022-09-12T15:23:19.309Z,1.80
2022-09-12T15:25:47.164Z,1.88
2022-09-12T15:28:20.592Z,1.45
2022-09-12T15:30:51.230Z,1.70
2022-09-12T15:33:20.920Z,1.50
2022-09-12T15:35:48.579Z,1.75
2022-09-12T15:38:16.521Z,1.70
2022-09-12T15:40:44.187Z,1.60
2022-09-12T15:43:13.884Z,1.50
2022-09-12T15:45:45.205Z,1.70
2022-09-12T15:48:13.789Z,1.50
2022-09-12T15:50:42.037Z,1.83
2022-09-12T15:53:14.105Z,1.80
2022-09-12T15:55:41.820Z,2.10
2022-09-12T15:58:09.723Z,2.00
2022-09-12T16:00:37.508Z,1.90
2022-09-12T16:03:06.690Z,1.80
2022-09-12T16:05:34.451Z,1.63
2022-09-12T16:08:03.542Z,1.50
2022-09-12T16:10:31.604Z,2.35
2022-09-12T16:12:59.717Z,2.50
2022-09-12T16:15:27.481Z,2.10
2022-09-12T16:17:55.098Z,2.33
2022-09-12T16:20:24.334Z,2.22
2022-09-12T16:22:51.982Z,2.08
2022-09-12T16:25:19.868Z,2.45
2022-09-12T16:27:47.493Z,2.22
2022-09-12T16:30:15.326Z,1.75
2022-09-12T16:32:43.046Z,1.95
2022-09-12T16:35:14.062Z,1.95
2022-09-12T16:37:43.374Z,1.98
2022-09-12T16:40:11.918Z,2.33
2022-09-12T16:42:43.529Z,2.80
2022-09-12T16:45:12.083Z,2.55
2022-09-12T16:47:40.006Z,2.20
2022-09-12T16:50:11.381Z,2.40
2022-09-12T16:52:39.298Z,1.85
2022-09-12T16:55:09.972Z,2.42
2022-09-12T16:57:37.568Z,2.25
2022-09-12T17:00:06.733Z,2.17
2022-09-12T17:02:34.377Z,2.25
2022-09-12T17:05:01.993Z,1.92
2022-09-12T17:07:29.626Z,2.35
2022-09-12T17:09:57.232Z,2.50
2022-09-12T17:12:26.310Z,2.53
2022-09-12T17:14:54.380Z,2.30
2022-09-12T17:17:21.949Z,2.20
2022-09-12T17:19:49.811Z,1.98
2022-09-12T17:22:17.424Z,2.35
2022-09-12T17:24:45.392Z,2.20
2022-09-12T17:27:13.103Z,2.25
2022-09-12T17:29:42.031Z,2.55
2022-09-12T17:32:09.589Z,2.10
2022-09-12T17:34:37.281Z,2.38
2022-09-12T17:37:05.282Z,2.08
2022-09-12T17:39:32.977Z,2.50
2022-09-12T17:42:00.626Z,2.00
2022-09-12T17:44:30.117Z,2.15
2022-09-12T17:46:59.033Z,2.05
2022-09-12T17:49:26.838Z,2.40
2022-09-12T17:51:56.126Z,2.00
2022-09-12T17:54:24.508Z,2.33
2022-09-12T17:56:52.433Z,2.30
2022-09-12T17:59:22.907Z,2.38
2022-09-12T18:02:08.524Z,2.90
2022-09-12T18:04:37.547Z,2.72
2022-09-12T18:07:05.926Z,2.50
2022-09-12T18:09:33.683Z,2.55
2022-09-12T18:12:01.287Z,2.30
2022-09-12T18:14:29.066Z,2.65
2022-09-12T18:16:57.613Z,2.50
2022-09-12T18:19:26.556Z,2.65
2022-09-12T18:21:56.001Z,2.40
2022-09-12T18:24:24.111Z,2.75
2022-09-12T18:26:51.903Z,2.80
2022-09-12T18:29:20.124Z,2.35
2022-09-12T18:31:48.012Z,2.70
2022-09-12T18:34:16.143Z,2.75
2022-09-12T18:36:45.535Z,2.45
2022-09-12T18:39:15.303Z,2.67
2022-09-12T18:41:42.939Z,2.70
2022-09-12T18:44:12.461Z,2.70
2022-09-12T18:46:40.237Z,2.70
2022-09-12T18:49:19.377Z,2.90
2022-09-12T18:52:13.631Z,2.65
2022-09-12T18:54:42.767Z,2.50
2022-09-12T18:57:12.168Z,2.63
2022-09-12T19:00:09.345Z,3.00
2022-09-12T19:02:48.640Z,2.92
2022-09-12T19:05:21.446Z,3.92
2022-09-12T19:07:49.554Z,3.90
2022-09-12T19:10:19.646Z,3.30
2022-09-12T19:12:49.247Z,3.47
2022-09-12T19:15:16.958Z,4.43
2022-09-12T19:17:48.298Z,4.00
2022-09-12T19:20:15.915Z,3.97
2022-09-12T19:22:43.840Z,3.90
2022-09-12T19:25:11.467Z,4.25
2022-09-12T19:27:40.405Z,4.45
2022-09-12T19:30:08.791Z,4.15
2022-09-12T19:32:36.793Z,3.70
2022-09-12T19:35:05.001Z,3.63
2022-09-12T19:37:32.564Z,3.00
2022-09-12T19:40:00.282Z,3.35
2022-09-12T19:42:27.888Z,3.33
2022-09-12T19:44:56.816Z,3.78
2022-09-12T19:47:25.179Z,4.45
2022-09-12T19:49:52.810Z,3.78
2022-09-12T19:52:20.565Z,4.10
2022-09-12T19:54:48.347Z,3.78
2022-09-12T19:57:15.880Z,3.67
2022-09-12T19:59:45.090Z,3.90
2022-09-12T20:02:14.126Z,3.63
2022-09-12T20:04:42.083Z,4.07
2022-09-12T20:07:09.688Z,3.70
2022-09-12T20:09:37.756Z,4.13
2022-09-12T20:12:06.000Z,4.70
2022-09-12T20:14:33.572Z,4.10
2022-09-12T20:17:01.197Z,4.07
2022-09-12T20:19:31.364Z,3.85
2022-09-12T20:21:59.667Z,4.57
2022-09-12T20:24:27.378Z,5.20
2022-09-12T20:26:57.502Z,4.40
2022-09-12T20:29:28.154Z,4.13
2022-09-12T20:31:55.732Z,4.60
2022-09-12T20:34:23.714Z,3.85
2022-09-12T20:36:52.993Z,3.72
2022-09-12T20:39:22.625Z,3.95
2022-09-12T20:41:50.638Z,4.10
2022-09-12T20:44:18.395Z,3.78
2022-09-12T20:46:46.107Z,3.60
2022-09-12T20:49:13.760Z,3.42
2022-09-12T20:51:41.351Z,3.53
2022-09-12T20:54:11.730Z,3.25
2022-09-12T20:56:39.644Z,3.80
2022-09-12T20:59:07.443Z,3.85
2022-09-12T21:01:35.302Z,4.40
2022-09-12T21:04:03.295Z,3.45
2022-09-12T21:06:31.621Z,3.78
2022-09-12T21:08:59.764Z,3.80
2022-09-12T21:11:29.427Z,3.30
2022-09-12T21:13:57.902Z,3.80
2022-09-12T21:16:25.554Z,3.90
2022-09-12T21:18:57.887Z,4.00
2022-09-12T21:21:26.444Z,4.20
2022-09-12T21:23:55.271Z,4.10
2022-09-12T21:26:22.871Z,3.80
2022-09-12T21:28:51.797Z,3.63
2022-09-12T21:31:19.395Z,3.42
2022-09-12T21:33:47.051Z,4.00
2022-09-12T21:36:14.678Z,3.63
2022-09-12T21:38:42.226Z,4.30
2022-09-12T21:41:11.803Z,4.07
2022-09-12T21:43:40.169Z,3.72
2022-09-12T21:46:09.825Z,4.22
2022-09-12T21:48:38.168Z,3.50
2022-09-12T21:51:06.573Z,3.20
2022-09-12T21:53:34.209Z,3.58
2022-09-12T21:56:04.676Z,2.95
2022-09-12T21:58:32.365Z,3.67
2022-09-12T22:01:00.881Z,3.72
2022-09-12T22:03:31.182Z,3.53
2022-09-12T22:06:00.158Z,3.55
2022-09-12T22:08:28.097Z,3.60
2022-09-12T22:10:59.413Z,3.50
2022-09-12T22:13:27.378Z,3.70
2022-09-12T22:15:55.267Z,3.78
2022-09-12T22:18:22.874Z,3.47
2022-09-12T22:20:59.716Z,3.70
2022-09-12T22:23:45.120Z,3.35
2022-09-12T22:26:14.068Z,3.70
2022-09-12T22:28:41.607Z,4.10
2022-09-12T22:31:11.379Z,4.00
2022-09-12T22:33:39.104Z,3.58
2022-09-12T22:36:08.809Z,3.47
2022-09-12T22:38:37.135Z,3.60
2022-09-12T22:41:05.890Z,3.35
2022-09-12T22:43:34.035Z,3.30
2022-09-12T22:46:01.841Z,3.70
2022-09-12T22:48:29.515Z,3.28
2022-09-12T22:50:57.123Z,3.22
2022-09-12T22:53:26.208Z,3.47
2022-09-12T22:55:53.869Z,3.25
2022-09-12T22:58:21.693Z,3.10
2022-09-12T23:00:50.439Z,2.90
2022-09-12T23:03:18.375Z,3.50
2022-09-12T23:05:47.115Z,2.80
2022-09-12T23:08:14.789Z,3.55
2022-09-12T23:10:43.982Z,3.10
2022-09-12T23:13:12.306Z,3.35
2022-09-12T23:15:40.122Z,3.35
2022-09-12T23:18:08.415Z,3.03
2022-09-12T23:20:36.037Z,3.10
2022-09-12T23:23:03.947Z,2.90
2022-09-12T23:25:31.535Z,2.72
2022-09-12T23:28:00.467Z,2.92
2022-09-12T23:30:28.083Z,2.42
2022-09-12T23:32:56.782Z,2.70
2022-09-12T23:35:24.423Z,2.70
2022-09-12T23:37:51.998Z,2.50
2022-09-12T23:40:19.665Z,2.72
2022-09-12T23:42:47.282Z,2.75
2022-09-12T23:45:16.409Z,2.30
2022-09-12T23:47:43.956Z,2.60
2022-09-12T23:50:11.531Z,2.42
2022-09-12T23:52:39.121Z,2.20
2022-09-12T23:55:07.326Z,2.70
2022-09-12T23:57:35.114Z,2.25
